createdAt,value
2017-05-23T00:00:50.646Z,0
2017-05-23T00:01:50.559Z,0
2017-05-23T00:02:50.697Z,0
2017-05-23T00:03:50.726Z,0
2017-05-23T00:04:50.814Z,0
2017-05-23T00:05:50.789Z,0
2017-05-23T00:06:50.712Z,0
2017-05-23T00:07:50.848Z,0
2017-05-23T00:08:50.873Z,0
2017-05-23T00:09:50.905Z,0
2017-05-23T00:10:50.923Z,0
2017-05-23T00:11:51.155Z,0
2017-05-23T00:12:50.988Z,0
2017-05-23T00:13:51.021Z,0
2017-05-23T00:14:50.726Z,0
2017-05-23T00:15:50.764Z,0
2017-05-23T00:16:50.999Z,0
2017-05-23T00:17:50.504Z,0
2017-05-23T00:18:51.169Z,0
2017-05-23T00:19:50.878Z,0
2017-05-23T00:20:50.906Z,0
2017-05-23T00:21:51.132Z,0
2017-05-23T00:22:51.272Z,0
2017-05-23T00:23:50.676Z,0
2017-05-23T00:24:51.017Z,0
2017-05-23T00:25:51.354Z,0
2017-05-23T00:26:51.579Z,0
2017-05-23T00:27:51.414Z,0
2017-05-23T00:28:51.136Z,0
2017-05-23T00:29:51.485Z,0
2017-05-23T00:30:51.507Z,0
2017-05-23T00:31:51.781Z,0
2017-05-23T00:32:51.240Z,0
2017-05-23T00:33:50.652Z,0
2017-05-23T00:34:51.322Z,0
2017-05-23T00:35:51.649Z,0
2017-05-23T00:36:51.978Z,0
2017-05-23T00:37:51.393Z,0
2017-05-23T00:38:51.421Z,0
2017-05-23T00:39:51.757Z,0
2017-05-23T00:40:51.789Z,0
2017-05-23T00:41:51.700Z,0
2017-05-23T00:42:51.540Z,0
2017-05-23T00:43:51.885Z,0
2017-05-23T00:44:51.585Z,0
2017-05-23T00:45:51.305Z,0
2017-05-23T00:46:52.163Z,0
2017-05-23T00:47:51.992Z,0
2017-05-23T00:48:51.396Z,0
2017-05-23T00:49:52.053Z,0
2017-05-23T00:50:52.075Z,0
2017-05-23T00:51:51.975Z,0
2017-05-23T00:52:52.135Z,0
2017-05-23T00:53:51.847Z,0
2017-05-23T00:54:51.872Z,0
2017-05-23T00:55:51.902Z,0
2017-05-23T00:56:52.505Z,0
2017-05-23T00:57:52.280Z,0
2017-05-23T00:58:52.307Z,0
2017-05-23T00:59:52.332Z,0
2017-05-23T01:00:52.050Z,0
2017-05-23T01:01:52.083Z,0
2017-05-23T01:02:52.105Z,0
2017-05-23T01:03:52.447Z,0
2017-05-23T01:04:52.477Z,0
2017-05-23T01:05:52.194Z,0
2017-05-23T01:06:52.533Z,0
2017-05-23T01:07:52.254Z,0
2017-05-23T01:08:52.595Z,0
2017-05-23T01:09:52.620Z,0
2017-05-23T01:10:52.332Z,0
2017-05-23T01:11:52.070Z,0
2017-05-23T01:12:52.703Z,0
2017-05-23T01:13:51.804Z,0
2017-05-23T01:14:52.137Z,0
2017-05-23T01:15:52.469Z,0
2017-05-23T01:16:52.505Z,0
2017-05-23T01:17:52.542Z,0
2017-05-23T01:18:52.874Z,0
2017-05-23T01:19:52.908Z,0
2017-05-23T01:20:52.613Z,0
2017-05-23T01:21:52.650Z,0
2017-05-23T01:22:52.678Z,0
2017-05-23T01:23:53.021Z,0
2017-05-23T01:24:52.735Z,0
2017-05-23T01:25:52.760Z,0
2017-05-23T01:26:52.794Z,0
2017-05-23T01:27:53.358Z,0
2017-05-23T01:28:53.168Z,0
2017-05-23T01:29:53.205Z,0
2017-05-23T01:30:53.228Z,0
2017-05-23T01:31:53.254Z,0
2017-05-23T01:32:53.479Z,0
2017-05-23T01:33:52.679Z,0
2017-05-23T01:34:53.329Z,0
2017-05-23T01:35:53.361Z,0
2017-05-23T01:36:53.390Z,0
2017-05-23T01:37:53.671Z,0
2017-05-23T01:38:53.448Z,0
2017-05-23T01:39:53.161Z,0
2017-05-23T01:40:53.193Z,0
2017-05-23T01:41:53.539Z,0
2017-05-23T01:42:53.846Z,0
2017-05-23T01:43:53.591Z,0
2017-05-23T01:44:53.613Z,0
2017-05-23T01:45:53.640Z,0
2017-05-23T01:46:53.045Z,0
2017-05-23T01:47:53.906Z,0
2017-05-23T01:48:53.731Z,0
2017-05-23T01:49:53.446Z,0
2017-05-23T01:50:53.477Z,0
2017-05-23T01:51:53.817Z,0
2017-05-23T01:52:53.724Z,0
2017-05-23T01:53:53.869Z,0
2017-05-23T01:54:53.908Z,0
2017-05-23T01:55:53.932Z,0
2017-05-23T01:56:53.650Z,0
2017-05-23T01:57:53.931Z,0
2017-05-23T01:58:54.011Z,0
2017-05-23T01:59:53.727Z,0
2017-05-23T02:00:53.765Z,0
2017-05-23T02:01:54.102Z,0
2017-05-23T02:02:54.325Z,0
2017-05-23T02:03:54.158Z,0
2017-05-23T02:04:54.184Z,0
2017-05-23T02:05:54.221Z,0
2017-05-23T02:06:53.941Z,0
2017-05-23T02:07:53.854Z,0
2017-05-23T02:08:53.679Z,0
2017-05-23T02:09:53.699Z,0
2017-05-23T02:10:53.730Z,0
2017-05-23T02:11:54.381Z,0
2017-05-23T02:12:54.667Z,0
2017-05-23T02:13:54.443Z,0
2017-05-23T02:14:54.471Z,0
2017-05-23T02:15:54.212Z,0
2017-05-23T02:16:54.528Z,0
2017-05-23T02:17:54.494Z,0
2017-05-23T02:18:54.586Z,0
2017-05-23T02:19:54.616Z,0
2017-05-23T02:20:54.631Z,0
2017-05-23T02:21:54.668Z,0
2017-05-23T02:22:54.313Z,0
2017-05-23T02:23:54.731Z,0
2017-05-23T02:24:54.755Z,0
2017-05-23T02:25:54.468Z,0
2017-05-23T02:26:54.505Z,0
2017-05-23T02:27:55.031Z,0
2017-05-23T02:28:54.563Z,0
2017-05-23T02:29:54.898Z,0
2017-05-23T02:30:54.928Z,0
2017-05-23T02:31:54.636Z,0
2017-05-23T02:32:54.863Z,0
2017-05-23T02:33:54.702Z,0
2017-05-23T02:34:54.729Z,0
2017-05-23T02:35:54.760Z,0
2017-05-23T02:36:54.473Z,0
2017-05-23T02:37:54.694Z,0
2017-05-23T02:38:55.150Z,0
2017-05-23T02:39:55.180Z,0
2017-05-23T02:40:54.899Z,0
2017-05-23T02:41:54.921Z,0
2017-05-23T02:42:55.145Z,0
2017-05-23T02:43:54.982Z,0
2017-05-23T02:44:55.011Z,0
2017-05-23T02:45:55.042Z,0
2017-05-23T02:46:54.751Z,0
2017-05-23T02:47:55.297Z,0
2017-05-23T02:48:54.814Z,0
2017-05-23T02:49:54.848Z,0
2017-05-23T02:50:55.172Z,0
2017-05-23T02:51:55.513Z,0
2017-05-23T02:52:55.742Z,0
2017-05-23T02:53:55.273Z,0
2017-05-23T02:54:55.294Z,0
2017-05-23T02:55:55.011Z,0
2017-05-23T02:56:55.656Z,0
2017-05-23T02:57:55.886Z,0
2017-05-23T02:58:55.723Z,0
2017-05-23T02:59:55.739Z,0
2017-05-23T03:00:55.464Z,0
2017-05-23T03:01:55.483Z,0
2017-05-23T03:02:55.772Z,0
2017-05-23T03:03:55.550Z,0
2017-05-23T03:04:55.574Z,0
2017-05-23T03:05:55.291Z,0
2017-05-23T03:06:55.636Z,0
2017-05-23T03:07:55.861Z,0
2017-05-23T03:08:56.007Z,0
2017-05-23T03:09:56.031Z,0
2017-05-23T03:10:55.430Z,0
2017-05-23T03:11:56.082Z,0
2017-05-23T03:12:56.081Z,0
2017-05-23T03:13:55.522Z,0
2017-05-23T03:14:55.865Z,0
2017-05-23T03:15:55.886Z,0
2017-05-23T03:16:55.915Z,4
2017-05-23T03:17:55.516Z,4
2017-05-23T03:18:56.281Z,4
2017-05-23T03:19:56.315Z,4
2017-05-23T03:20:56.338Z,4
2017-05-23T03:21:56.371Z,4
2017-05-23T03:22:56.643Z,4
2017-05-23T03:23:56.118Z,8
2017-05-23T03:24:56.452Z,8
2017-05-23T03:25:55.859Z,8
2017-05-23T03:26:55.886Z,8
2017-05-23T03:27:56.740Z,12
2017-05-23T03:28:55.942Z,8
2017-05-23T03:29:56.274Z,12
2017-05-23T03:30:56.618Z,16
2017-05-23T03:31:56.029Z,16
2017-05-23T03:32:56.576Z,16
2017-05-23T03:33:56.393Z,20
2017-05-23T03:34:56.734Z,24
2017-05-23T03:35:56.446Z,20
2017-05-23T03:36:56.479Z,24
2017-05-23T03:37:56.764Z,24
2017-05-23T03:38:56.850Z,28
2017-05-23T03:39:56.246Z,28
2017-05-23T03:40:56.585Z,32
2017-05-23T03:41:56.930Z,32
2017-05-23T03:42:57.160Z,36
2017-05-23T03:43:56.989Z,36
2017-05-23T03:44:56.707Z,36
2017-05-23T03:45:57.043Z,40
2017-05-23T03:46:56.764Z,44
2017-05-23T03:47:57.311Z,48
2017-05-23T03:48:57.136Z,52
2017-05-23T03:49:57.162Z,52
2017-05-23T03:50:57.185Z,60
2017-05-23T03:51:57.215Z,64
2017-05-23T03:52:57.140Z,68
2017-05-23T03:53:56.962Z,68
2017-05-23T03:54:56.994Z,76
2017-05-23T03:55:56.694Z,80
2017-05-23T03:56:57.356Z,80
2017-05-23T03:57:57.595Z,88
2017-05-23T03:58:57.093Z,92
2017-05-23T03:59:57.122Z,100
2017-05-23T04:00:57.149Z,108
2017-05-23T04:01:57.494Z,112
2017-05-23T04:02:57.723Z,120
2017-05-23T04:03:56.941Z,128
2017-05-23T04:04:57.573Z,136
2017-05-23T04:05:57.294Z,140
2017-05-23T04:06:57.631Z,148
2017-05-23T04:07:57.862Z,156
2017-05-23T04:08:57.068Z,164
2017-05-23T04:09:57.408Z,168
2017-05-23T04:10:57.749Z,176
2017-05-23T04:11:57.777Z,184
2017-05-23T04:12:57.698Z,192
2017-05-23T04:13:57.836Z,196
2017-05-23T04:14:57.540Z,200
2017-05-23T04:15:57.578Z,208
2017-05-23T04:16:57.295Z,212
2017-05-23T04:17:57.838Z,220
2017-05-23T04:18:57.660Z,228
2017-05-23T04:19:57.685Z,232
2017-05-23T04:20:57.721Z,240
2017-05-23T04:21:58.055Z,244
2017-05-23T04:22:58.288Z,248
2017-05-23T04:23:57.807Z,252
2017-05-23T04:24:58.164Z,260
2017-05-23T04:25:57.863Z,260
2017-05-23T04:26:57.881Z,268
2017-05-23T04:27:58.125Z,280
2017-05-23T04:28:58.255Z,280
2017-05-23T04:29:57.972Z,288
2017-05-23T04:30:58.312Z,296
2017-05-23T04:31:58.022Z,300
2017-05-23T04:32:58.258Z,300
2017-05-23T04:33:58.397Z,300
2017-05-23T04:34:58.111Z,292
2017-05-23T04:35:58.140Z,284
2017-05-23T04:36:58.481Z,272
2017-05-23T04:37:58.089Z,260
2017-05-23T04:38:58.534Z,248
2017-05-23T04:39:58.263Z,236
2017-05-23T04:40:58.590Z,228
2017-05-23T04:41:57.994Z,220
2017-05-23T04:42:58.853Z,224
2017-05-23T04:43:58.361Z,224
2017-05-23T04:44:58.388Z,228
2017-05-23T04:45:58.428Z,232
2017-05-23T04:46:58.445Z,240
2017-05-23T04:47:58.986Z,248
2017-05-23T04:48:58.503Z,256
2017-05-23T04:49:58.843Z,268
2017-05-23T04:50:58.565Z,284
2017-05-23T04:51:58.593Z,296
2017-05-23T04:52:59.133Z,304
2017-05-23T04:53:58.955Z,312
2017-05-23T04:54:58.675Z,316
2017-05-23T04:55:58.700Z,324
2017-05-23T04:56:59.041Z,336
2017-05-23T04:57:58.646Z,360
2017-05-23T04:58:58.474Z,388
2017-05-23T04:59:58.819Z,400
2017-05-23T05:00:58.529Z,408
2017-05-23T05:01:58.870Z,408
2017-05-23T05:02:58.789Z,412
2017-05-23T05:03:58.308Z,412
2017-05-23T05:04:58.960Z,400
2017-05-23T05:05:58.984Z,384
2017-05-23T05:06:59.327Z,368
2017-05-23T05:07:59.294Z,356
2017-05-23T05:08:59.072Z,356
2017-05-23T05:09:59.415Z,348
2017-05-23T05:10:58.812Z,356
2017-05-23T05:11:59.156Z,372
2017-05-23T05:12:59.693Z,392
2017-05-23T05:13:58.574Z,416
2017-05-23T05:14:59.550Z,432
2017-05-23T05:15:58.941Z,440
2017-05-23T05:16:59.602Z,432
2017-05-23T05:17:59.002Z,420
2017-05-23T05:18:59.355Z,408
2017-05-23T05:19:59.691Z,396
2017-05-23T05:20:59.463Z,396
2017-05-23T05:21:59.749Z,404
2017-05-23T05:22:59.773Z,412
2017-05-23T05:23:59.795Z,416
2017-05-23T05:24:59.523Z,428
2017-05-23T05:25:59.860Z,448
2017-05-23T05:26:59.884Z,464
2017-05-23T05:27:59.910Z,484
2017-05-23T05:28:59.945Z,508
2017-05-23T05:29:59.971Z,532
2017-05-23T05:30:59.682Z,552
2017-05-23T05:32:00.031Z,564
2017-05-23T05:33:00.053Z,588
2017-05-23T05:33:59.462Z,596
2017-05-23T05:34:59.791Z,608
2017-05-23T05:35:59.512Z,612
2017-05-23T05:36:59.543Z,620
2017-05-23T05:37:59.881Z,628
2017-05-23T05:39:00.417Z,640
2017-05-23T05:40:00.298Z,660
2017-05-23T05:40:59.656Z,676
2017-05-23T05:41:59.685Z,692
2017-05-23T05:42:59.393Z,716
2017-05-23T05:44:00.252Z,748
2017-05-23T05:45:00.082Z,784
2017-05-23T05:46:00.103Z,836
2017-05-23T05:47:00.443Z,864
2017-05-23T05:48:00.156Z,856
2017-05-23T05:49:00.398Z,840
2017-05-23T05:50:00.537Z,836
2017-05-23T05:51:00.243Z,808
2017-05-23T05:52:00.595Z,780
2017-05-23T05:53:00.612Z,760
2017-05-23T05:54:00.902Z,740
2017-05-23T05:55:00.666Z,712
2017-05-23T05:56:00.399Z,684
2017-05-23T05:57:00.732Z,672
2017-05-23T05:58:00.760Z,676
2017-05-23T05:59:00.677Z,684
2017-05-23T06:00:00.500Z,692
2017-05-23T06:01:00.526Z,680
2017-05-23T06:02:00.559Z,680
2017-05-23T06:03:00.275Z,692
2017-05-23T06:04:00.509Z,712
2017-05-23T06:05:00.646Z,708
2017-05-23T06:06:00.667Z,696
2017-05-23T06:07:01.007Z,684
2017-05-23T06:08:01.104Z,704
2017-05-23T06:09:01.269Z,744
2017-05-23T06:10:01.097Z,752
2017-05-23T06:11:01.126Z,756
2017-05-23T06:12:01.151Z,760
2017-05-23T06:13:00.555Z,756
2017-05-23T06:14:01.097Z,796
2017-05-23T06:15:00.934Z,840
2017-05-23T06:16:01.259Z,872
2017-05-23T06:17:00.659Z,864
2017-05-23T06:18:01.012Z,848
2017-05-23T06:19:01.241Z,796
2017-05-23T06:20:01.066Z,768
2017-05-23T06:21:01.407Z,744
2017-05-23T06:22:01.432Z,684
2017-05-23T06:23:01.149Z,720
2017-05-23T06:24:01.698Z,748
2017-05-23T06:25:00.897Z,764
2017-05-23T06:26:01.547Z,732
2017-05-23T06:27:01.599Z,724
2017-05-23T06:28:01.608Z,784
2017-05-23T06:29:01.525Z,872
2017-05-23T06:30:01.664Z,908
2017-05-23T06:31:01.378Z,920
2017-05-23T06:32:01.717Z,916
2017-05-23T06:33:01.745Z,900
2017-05-23T06:34:02.025Z,844
2017-05-23T06:35:01.802Z,844
2017-05-23T06:36:01.528Z,876
2017-05-23T06:37:01.227Z,880
2017-05-23T06:38:01.576Z,852
2017-05-23T06:39:02.121Z,844
2017-05-23T06:40:01.318Z,804
2017-05-23T06:41:01.974Z,780
2017-05-23T06:42:02.003Z,748
2017-05-23T06:43:02.029Z,712
2017-05-23T06:44:02.255Z,708
2017-05-23T06:45:02.091Z,704
2017-05-23T06:46:02.104Z,704
2017-05-23T06:47:02.143Z,716
2017-05-23T06:48:02.175Z,740
2017-05-23T06:49:01.822Z,752
2017-05-23T06:50:02.229Z,768
2017-05-23T06:51:02.249Z,776
2017-05-23T06:52:02.286Z,760
2017-05-23T06:53:02.003Z,776
2017-05-23T06:54:02.536Z,788
2017-05-23T06:55:01.737Z,800
2017-05-23T06:56:02.078Z,816
2017-05-23T06:57:01.800Z,836
2017-05-23T06:58:02.135Z,856
2017-05-23T06:59:02.787Z,868
2017-05-23T07:00:02.193Z,888
2017-05-23T07:01:02.538Z,896
2017-05-23T07:02:02.259Z,912
2017-05-23T07:03:02.283Z,876
2017-05-23T07:04:02.816Z,900
2017-05-23T07:05:02.647Z,916
2017-05-23T07:06:02.361Z,936
2017-05-23T07:07:02.382Z,940
2017-05-23T07:08:02.422Z,944
2017-05-23T07:09:02.654Z,948
2017-05-23T07:10:02.482Z,972
2017-05-23T07:11:02.822Z,992
2017-05-23T07:12:02.847Z,1000
2017-05-23T07:13:02.882Z,1004
2017-05-23T07:14:03.150Z,1016
2017-05-23T07:15:02.618Z,1012
2017-05-23T07:16:02.960Z,992
2017-05-23T07:17:03.003Z,1020
2017-05-23T07:18:03.015Z,1052
2017-05-23T07:19:02.628Z,1024
2017-05-23T07:20:03.073Z,1016
2017-05-23T07:21:02.473Z,1036
2017-05-23T07:22:02.819Z,1060
2017-05-23T07:23:03.160Z,1100
2017-05-23T07:24:03.387Z,1156
2017-05-23T07:25:02.908Z,1180
2017-05-23T07:26:03.245Z,1212
2017-05-23T07:27:02.669Z,1204
2017-05-23T07:28:02.990Z,1196
2017-05-23T07:29:03.579Z,1192
2017-05-23T07:30:03.360Z,1196
2017-05-23T07:31:02.761Z,1192
2017-05-23T07:32:03.106Z,1180
2017-05-23T07:33:02.818Z,1180
2017-05-23T07:34:03.406Z,1180
2017-05-23T07:35:02.876Z,1188
2017-05-23T07:36:03.218Z,1196
2017-05-23T07:37:03.242Z,1164
2017-05-23T07:38:03.583Z,1180
2017-05-23T07:39:03.815Z,1224
2017-05-23T07:40:03.634Z,1228
2017-05-23T07:41:03.669Z,1232
2017-05-23T07:42:03.386Z,1236
2017-05-23T07:43:03.413Z,1244
2017-05-23T07:44:03.647Z,1232
2017-05-23T07:45:03.785Z,1228
2017-05-23T07:46:03.812Z,1244
2017-05-23T07:47:03.530Z,1252
2017-05-23T07:48:03.863Z,1252
2017-05-23T07:49:03.786Z,1244
2017-05-23T07:50:03.615Z,1240
2017-05-23T07:51:03.958Z,1232
2017-05-23T07:52:03.668Z,1228
2017-05-23T07:53:04.013Z,1216
2017-05-23T07:54:04.239Z,1204
2017-05-23T07:55:03.128Z,1212
2017-05-23T07:56:04.102Z,1204
2017-05-23T07:57:04.123Z,1220
2017-05-23T07:58:03.531Z,1248
2017-05-23T07:59:04.063Z,1276
2017-05-23T08:00:04.220Z,1292
2017-05-23T08:01:03.933Z,1268
2017-05-23T08:02:04.278Z,1260
2017-05-23T08:03:04.296Z,1248
2017-05-23T08:04:04.519Z,1260
2017-05-23T08:05:04.044Z,1260
2017-05-23T08:06:04.383Z,1264
2017-05-23T08:07:04.410Z,1300
2017-05-23T08:08:04.127Z,1328
2017-05-23T08:09:04.666Z,1352
2017-05-23T08:10:04.204Z,1356
2017-05-23T08:11:04.527Z,1360
2017-05-23T08:12:04.244Z,1364
2017-05-23T08:13:03.951Z,1356
2017-05-23T08:14:04.507Z,1344
2017-05-23T08:15:04.334Z,1356
2017-05-23T08:16:04.036Z,1364
2017-05-23T08:17:04.389Z,1372
2017-05-23T08:18:04.408Z,1380
2017-05-23T08:19:04.954Z,1392
2017-05-23T08:20:04.784Z,1404
2017-05-23T08:21:04.813Z,1404
2017-05-23T08:22:04.843Z,1400
2017-05-23T08:23:04.874Z,1408
2017-05-23T08:24:04.778Z,1400
2017-05-23T08:25:04.615Z,1392
2017-05-23T08:26:04.644Z,1380
2017-05-23T08:27:04.357Z,1388
2017-05-23T08:28:05.005Z,1460
2017-05-23T08:29:05.237Z,1452
2017-05-23T08:30:04.759Z,1440
2017-05-23T08:31:04.788Z,1520
2017-05-23T08:32:04.501Z,1568
2017-05-23T08:33:05.157Z,1568
2017-05-23T08:34:05.441Z,1540
2017-05-23T08:35:05.231Z,1480
2017-05-23T08:36:05.243Z,1468
2017-05-23T08:37:05.263Z,1456
2017-05-23T08:38:05.301Z,1440
2017-05-23T08:39:05.331Z,1428
2017-05-23T08:40:05.358Z,1408
2017-05-23T08:41:05.375Z,1404
2017-05-23T08:42:05.420Z,1404
2017-05-23T08:43:04.812Z,1412
2017-05-23T08:44:05.477Z,1428
2017-05-23T08:45:05.498Z,1436
2017-05-23T08:46:05.530Z,1468
2017-05-23T08:47:05.244Z,1516
2017-05-23T08:48:05.584Z,1572
2017-05-23T08:49:05.614Z,1624
2017-05-23T08:50:05.348Z,1700
2017-05-23T08:51:05.671Z,1768
2017-05-23T08:52:05.703Z,1828
2017-05-23T08:53:05.741Z,1916
2017-05-23T08:54:05.765Z,2012
2017-05-23T08:55:05.788Z,2096
2017-05-23T08:56:05.814Z,2120
2017-05-23T08:57:05.536Z,2132
2017-05-23T08:58:05.886Z,2100
2017-05-23T08:59:05.598Z,2032
2017-05-23T09:00:05.818Z,2056
2017-05-23T09:01:05.651Z,2016
2017-05-23T09:02:05.987Z,1992
2017-05-23T09:03:05.704Z,1948
2017-05-23T09:04:06.045Z,1928
2017-05-23T09:05:06.276Z,1932
2017-05-23T09:06:06.108Z,1932
2017-05-23T09:07:06.140Z,1936
2017-05-23T09:08:06.177Z,1972
2017-05-23T09:09:06.223Z,2024
2017-05-23T09:10:06.421Z,2064
2017-05-23T09:11:06.263Z,2096
2017-05-23T09:12:05.967Z,2140
2017-05-23T09:13:05.999Z,2152
2017-05-23T09:14:06.029Z,2168
2017-05-23T09:15:06.561Z,2168
2017-05-23T09:16:05.775Z,2184
2017-05-23T09:17:06.428Z,2184
2017-05-23T09:18:06.452Z,2216
2017-05-23T09:19:06.171Z,2200
2017-05-23T09:20:06.710Z,2144
2017-05-23T09:21:06.543Z,2108
2017-05-23T09:22:06.572Z,2128
2017-05-23T09:23:06.292Z,2184
2017-05-23T09:24:06.312Z,2232
2017-05-23T09:25:06.282Z,2248
2017-05-23T09:26:06.685Z,2164
2017-05-23T09:27:06.408Z,2020
2017-05-23T09:28:06.747Z,1880
2017-05-23T09:29:06.456Z,1724
2017-05-23T09:30:07.057Z,1632
2017-05-23T09:31:06.827Z,1568
2017-05-23T09:32:06.542Z,1532
2017-05-23T09:33:06.613Z,1516
2017-05-23T09:34:06.597Z,1508
2017-05-23T09:35:07.293Z,1520
2017-05-23T09:36:06.351Z,1556
2017-05-23T09:37:06.690Z,1616
2017-05-23T09:38:06.717Z,1716
2017-05-23T09:39:07.073Z,1872
2017-05-23T09:40:06.670Z,1980
2017-05-23T09:41:06.814Z,2116
2017-05-23T09:42:07.150Z,2248
2017-05-23T09:43:07.172Z,2348
2017-05-23T09:44:07.208Z,2316
2017-05-23T09:45:07.169Z,2232
2017-05-23T09:46:07.266Z,2092
2017-05-23T09:47:06.979Z,2032
2017-05-23T09:48:06.699Z,1964
2017-05-23T09:49:06.720Z,1936
2017-05-23T09:50:07.629Z,1908
2017-05-23T09:51:07.110Z,1896
2017-05-23T09:52:07.442Z,1888
2017-05-23T09:53:07.472Z,1892
2017-05-23T09:54:07.488Z,1888
2017-05-23T09:55:07.776Z,1876
2017-05-23T09:56:07.558Z,1804
2017-05-23T09:57:07.578Z,1740
2017-05-23T09:58:07.614Z,1792
2017-05-23T09:59:07.332Z,1840
2017-05-23T10:00:07.916Z,1860
2017-05-23T10:01:07.391Z,1844
2017-05-23T10:02:07.734Z,1852
2017-05-23T10:03:07.763Z,1864
2017-05-23T10:04:07.787Z,1876
2017-05-23T10:05:08.013Z,1896
2017-05-23T10:06:07.840Z,1892
2017-05-23T10:07:07.250Z,1860
2017-05-23T10:08:07.919Z,1856
2017-05-23T10:09:07.935Z,1900
2017-05-23T10:10:07.534Z,1956
2017-05-23T10:11:07.980Z,1972
2017-05-23T10:12:08.022Z,1980
2017-05-23T10:13:08.050Z,2004
2017-05-23T10:14:07.451Z,2024
2017-05-23T10:15:08.048Z,1952
2017-05-23T10:16:07.821Z,1960
2017-05-23T10:17:08.175Z,2008
2017-05-23T10:18:08.199Z,2088
2017-05-23T10:19:08.227Z,2140
2017-05-23T10:20:08.191Z,2176
2017-05-23T10:21:08.284Z,2204
2017-05-23T10:22:08.309Z,2280
2017-05-23T10:23:08.347Z,2412
2017-05-23T10:24:08.065Z,2540
2017-05-23T10:25:08.601Z,2624
2017-05-23T10:26:07.797Z,2728
2017-05-23T10:27:07.829Z,2788
2017-05-23T10:28:08.485Z,2824
2017-05-23T10:29:08.204Z,2904
2017-05-23T10:30:08.799Z,3012
2017-05-23T10:31:08.575Z,3060
2017-05-23T10:32:08.613Z,3136
2017-05-23T10:33:08.638Z,3260
2017-05-23T10:34:08.663Z,3460
2017-05-23T10:35:08.955Z,3640
2017-05-23T10:36:08.409Z,3752
2017-05-23T10:37:08.753Z,3792
2017-05-23T10:38:08.462Z,3752
2017-05-23T10:39:08.179Z,3736
2017-05-23T10:40:08.775Z,3796
2017-05-23T10:41:08.872Z,3976
2017-05-23T10:42:08.580Z,4208
2017-05-23T10:43:08.618Z,4312
2017-05-23T10:44:08.966Z,4332
2017-05-23T10:45:09.242Z,4412
2017-05-23T10:46:08.704Z,4572
2017-05-23T10:47:09.063Z,4784
2017-05-23T10:48:09.081Z,5012
2017-05-23T10:49:09.101Z,5056
2017-05-23T10:50:09.381Z,5008
2017-05-23T10:51:09.174Z,5040
2017-05-23T10:52:09.189Z,5180
2017-05-23T10:53:08.910Z,5216
2017-05-23T10:54:08.929Z,5304
2017-05-23T10:55:09.522Z,5284
2017-05-23T10:56:08.999Z,5348
2017-05-23T10:57:09.034Z,5348
2017-05-23T10:58:09.057Z,5428
2017-05-23T10:59:09.098Z,5508
2017-05-23T11:00:09.367Z,5688
2017-05-23T11:01:09.147Z,5680
2017-05-23T11:02:09.166Z,5660
2017-05-23T11:03:09.201Z,5684
2017-05-23T11:04:09.542Z,5504
2017-05-23T11:05:09.818Z,5616
2017-05-23T11:06:09.606Z,6464
2017-05-23T11:07:09.320Z,6696
2017-05-23T11:08:09.366Z,6724
2017-05-23T11:09:09.378Z,6548
2017-05-23T11:10:09.974Z,6520
2017-05-23T11:11:09.742Z,6352
2017-05-23T11:12:09.785Z,5872
2017-05-23T11:13:09.189Z,6164
2017-05-23T11:14:09.840Z,6756
2017-05-23T11:15:10.121Z,6604
2017-05-23T11:16:09.958Z,6996
2017-05-23T11:17:09.931Z,7400
2017-05-23T11:18:09.965Z,7452
2017-05-23T11:19:09.989Z,7420
2017-05-23T11:20:09.958Z,7212
2017-05-23T11:21:09.739Z,7424
2017-05-23T11:22:09.763Z,7180
2017-05-23T11:23:10.116Z,7008
2017-05-23T11:24:10.139Z,6868
2017-05-23T11:25:10.420Z,6724
2017-05-23T11:26:10.202Z,6116
2017-05-23T11:27:10.223Z,6504
2017-05-23T11:28:10.276Z,7600
2017-05-23T11:29:09.970Z,7924
2017-05-23T11:30:10.253Z,8108
2017-05-23T11:31:10.031Z,8176
2017-05-23T11:32:10.383Z,8520
2017-05-23T11:33:10.097Z,8312
2017-05-23T11:34:10.108Z,8212
2017-05-23T11:35:10.677Z,8156
2017-05-23T11:36:10.180Z,8296
2017-05-23T11:37:10.220Z,7524
2017-05-23T11:38:10.244Z,7028
2017-05-23T11:39:10.588Z,6752
2017-05-23T11:40:10.813Z,6984
2017-05-23T11:41:10.646Z,7232
2017-05-23T11:42:10.063Z,8088
2017-05-23T11:43:10.703Z,8920
2017-05-23T11:44:10.423Z,9216
2017-05-23T11:45:10.145Z,10184
2017-05-23T11:46:10.497Z,10260
2017-05-23T11:47:10.509Z,10224
2017-05-23T11:48:10.864Z,10812
2017-05-23T11:49:10.885Z,12224
2017-05-23T11:50:10.920Z,14120
2017-05-23T11:51:10.953Z,18368
2017-05-23T11:52:10.666Z,9928
2017-05-23T11:53:11.008Z,4144
2017-05-23T11:54:10.747Z,6024
2017-05-23T11:55:10.762Z,17884
2017-05-23T11:56:11.350Z,35648
2017-05-23T11:57:11.134Z,38400
2017-05-23T11:58:10.848Z,38848
2017-05-23T11:59:11.189Z,38528
2017-05-23T12:00:11.225Z,38848
2017-05-23T12:01:11.758Z,38336
2017-05-23T12:02:11.292Z,30336
2017-05-23T12:03:11.312Z,8348
2017-05-23T12:04:11.352Z,20192
2017-05-23T12:05:11.069Z,7732
2017-05-23T12:06:11.658Z,4188
2017-05-23T12:07:11.122Z,4492
2017-05-23T12:08:11.155Z,5232
2017-05-23T12:09:11.184Z,5292
2017-05-23T12:10:11.543Z,6852
2017-05-23T12:11:11.557Z,7804
2017-05-23T12:12:10.982Z,9840
2017-05-23T12:13:10.997Z,7900
2017-05-23T12:14:11.036Z,3444
2017-05-23T12:15:11.700Z,3304
2017-05-23T12:16:11.665Z,4120
2017-05-23T12:17:11.496Z,6744
2017-05-23T12:18:11.468Z,46976
2017-05-23T12:19:11.814Z,48512
2017-05-23T12:20:11.221Z,55872
2017-05-23T12:21:11.761Z,55360
2017-05-23T12:22:11.590Z,59200
2017-05-23T12:23:11.936Z,62080
2017-05-23T12:24:11.964Z,50592
2017-05-23T12:25:11.998Z,60352
2017-05-23T12:26:12.280Z,63744
2017-05-23T12:27:11.740Z,66048
2017-05-23T12:28:12.096Z,65088
2017-05-23T12:29:11.807Z,67616
2017-05-23T12:30:12.156Z,36704
2017-05-23T12:31:12.125Z,64704
2017-05-23T12:32:11.905Z,65184
2017-05-23T12:33:11.942Z,59264
2017-05-23T12:34:12.287Z,64160
2017-05-23T12:35:12.005Z,64992
2017-05-23T12:36:12.242Z,70240
2017-05-23T12:37:12.078Z,70784
2017-05-23T12:38:12.103Z,6692
2017-05-23T12:39:11.822Z,6604
2017-05-23T12:40:12.167Z,5956
2017-05-23T12:41:12.778Z,9080
2017-05-23T12:42:11.929Z,72000
2017-05-23T12:43:12.581Z,70176
2017-05-23T12:44:12.668Z,70624
2017-05-23T12:45:12.333Z,68288
2017-05-23T12:46:12.925Z,71072
2017-05-23T12:47:12.710Z,73312
2017-05-23T12:48:12.428Z,71328
2017-05-23T12:49:12.468Z,66272
2017-05-23T12:50:12.499Z,60256
2017-05-23T12:51:12.160Z,8592
2017-05-23T12:52:12.881Z,3756
2017-05-23T12:53:12.910Z,4212
2017-05-23T12:54:12.927Z,5364
2017-05-23T12:55:12.659Z,5752
2017-05-23T12:56:12.950Z,28640
2017-05-23T12:57:12.417Z,73056
2017-05-23T12:58:13.066Z,46880
2017-05-23T12:59:12.790Z,69856
2017-05-23T13:00:12.823Z,66432
2017-05-23T13:01:13.417Z,67424
2017-05-23T13:02:12.889Z,65856
2017-05-23T13:03:13.233Z,65216
2017-05-23T13:04:13.268Z,64416
2017-05-23T13:05:12.993Z,63840
2017-05-23T13:06:13.533Z,66016
2017-05-23T13:07:13.368Z,68672
2017-05-23T13:08:13.405Z,64640
2017-05-23T13:09:13.435Z,67456
2017-05-23T13:10:13.154Z,70528
2017-05-23T13:11:13.197Z,70624
2017-05-23T13:12:13.224Z,69664
2017-05-23T13:13:13.564Z,69216
2017-05-23T13:14:13.606Z,69792
2017-05-23T13:15:13.010Z,71360
2017-05-23T13:16:13.370Z,64448
2017-05-23T13:17:13.405Z,71648
2017-05-23T13:18:13.422Z,8280
2017-05-23T13:19:13.769Z,45760
2017-05-23T13:20:13.801Z,36672
2017-05-23T13:21:13.524Z,8888
2017-05-23T13:22:13.556Z,11812
2017-05-23T13:23:13.290Z,7960
2017-05-23T13:24:13.938Z,6072
2017-05-23T13:25:13.978Z,61824
2017-05-23T13:26:14.023Z,73152
2017-05-23T13:27:13.417Z,66016
2017-05-23T13:28:13.760Z,73056
2017-05-23T13:29:14.106Z,71328
2017-05-23T13:30:14.154Z,6452
2017-05-23T13:31:13.862Z,64032
2017-05-23T13:32:14.457Z,63648
2017-05-23T13:33:13.938Z,8252
2017-05-23T13:34:14.265Z,6720
2017-05-23T13:35:14.311Z,54144
2017-05-23T13:36:14.340Z,57920
2017-05-23T13:37:14.320Z,55200
2017-05-23T13:38:14.401Z,54752
2017-05-23T13:39:14.443Z,54272
2017-05-23T13:40:14.473Z,51680
2017-05-23T13:41:14.185Z,19968
2017-05-23T13:42:14.787Z,6924
2017-05-23T13:43:14.256Z,5552
2017-05-23T13:44:14.605Z,50176
2017-05-23T13:45:14.327Z,12040